Terminal Aerodrome Forecast
Issued by NWS St Louis, MO

Home | Current Version | Previous Version | Text Only | Print | Product List | Glossary On
Versions: 1 2 3 4 5 6 7 8 9 10 11 12 13 14 15 16 17 18 19 20 21 22 23 24
000
FTUS43 KLSX 301100
TAFCOU
TAF
KCOU 301137Z 3012/3112 VRB04KT 6SM -RA BR SCT012 OVC080
      TEMPO 3012/3015 BKN012
     FM301500 35010KT P6SM VCSH OVC012
     FM301800 34014KT P6SM OVC015
     FM310400 03010KT P6SM OVC015=

USA.gov is the U.S. government's official web portal to all federal, state and local government web resources and services.